sensor_id;sensor_type;location;lat;lon;timestamp;P1;P2;P0
61592;PMS5003;70568;51.378;-1.342;2023-06-22T00:00:19;16;16;
61592;PMS5003;70568;51.378;-1.342;2023-06-22T00:02:46;14;14;
61592;PMS5003;70568;51.378;-1.342;2023-06-22T00:05:14;17;16;
61592;PMS5003;70568;51.378;-1.342;2023-06-22T00:07:41;16;16;
61592;PMS5003;70568;51.378;-1.342;2023-06-22T00:10:07;19;18;
61592;PMS5003;70568;51.378;-1.342;2023-06-22T00:12:34;18;18;
61592;PMS5003;70568;51.378;-1.342;2023-06-22T00:15:01;20;17;
61592;PMS5003;70568;51.378;-1.342;2023-06-22T00:17:27;15;13;
61592;PMS5003;70568;51.378;-1.342;2023-06-22T00:19:54;19;18;
61592;PMS5003;70568;51.378;-1.342;2023-06-22T00:22:20;14;13;
61592;PMS5003;70568;51.378;-1.342;2023-06-22T00:24:47;19;16;
61592;PMS5003;70568;51.378;-1.342;2023-06-22T00:27:14;18;17;
61592;PMS5003;70568;51.378;-1.342;2023-06-22T00:29:41;17;16;
61592;PMS5003;70568;51.378;-1.342;2023-06-22T00:32:09;15;14;
61592;PMS5003;70568;51.378;-1.342;2023-06-22T00:34:35;14;13;
61592;PMS5003;70568;51.378;-1.342;2023-06-22T00:37:02;14;13;
61592;PMS5003;70568;51.378;-1.342;2023-06-22T00:39:29;14;13;
61592;PMS5003;70568;51.378;-1.342;2023-06-22T00:41:56;16;15;
61592;PMS5003;70568;51.378;-1.342;2023-06-22T00:44:24;15;15;
61592;PMS5003;70568;51.378;-1.342;2023-06-22T00:46:51;15;14;
61592;PMS5003;70568;51.378;-1.342;2023-06-22T00:49:18;14;14;
61592;PMS5003;70568;51.378;-1.342;2023-06-22T00:51:46;17;15;
61592;PMS5003;70568;51.378;-1.342;2023-06-22T00:54:13;14;14;
61592;PMS5003;70568;51.378;-1.342;2023-06-22T00:56:39;14;13;
61592;PMS5003;70568;51.378;-1.342;2023-06-22T00:59:07;17;15;
61592;PMS5003;70568;51.378;-1.342;2023-06-22T01:01:34;15;15;
61592;PMS5003;70568;51.378;-1.342;2023-06-22T01:04:00;14;14;
61592;PMS5003;70568;51.378;-1.342;2023-06-22T01:06:29;12;12;
61592;PMS5003;70568;51.378;-1.342;2023-06-22T01:09:06;13;12;
61592;PMS5003;70568;51.378;-1.342;2023-06-22T01:11:39;14;14;
61592;PMS5003;70568;51.378;-1.342;2023-06-22T01:14:12;14;13;
61592;PMS5003;70568;51.378;-1.342;2023-06-22T01:16:46;14;14;
61592;PMS5003;70568;51.378;-1.342;2023-06-22T01:19:29;16;16;
61592;PMS5003;70568;51.378;-1.342;2023-06-22T01:22:05;14;13;
61592;PMS5003;70568;51.378;-1.342;2023-06-22T01:24:37;12;12;
61592;PMS5003;70568;51.378;-1.342;2023-06-22T01:27:13;15;15;
61592;PMS5003;70568;51.378;-1.342;2023-06-22T01:29:55;13;13;
61592;PMS5003;70568;51.378;-1.342;2023-06-22T01:32:24;13;13;
61592;PMS5003;70568;51.378;-1.342;2023-06-22T01:34:51;13;13;
61592;PMS5003;70568;51.378;-1.342;2023-06-22T01:37:18;13;13;
61592;PMS5003;70568;51.378;-1.342;2023-06-22T01:39:46;15;15;
61592;PMS5003;70568;51.378;-1.342;2023-06-22T01:42:13;14;13;
61592;PMS5003;70568;51.378;-1.342;2023-06-22T01:44:40;16;16;
61592;PMS5003;70568;51.378;-1.342;2023-06-22T01:47:07;13;13;
61592;PMS5003;70568;51.378;-1.342;2023-06-22T01:49:34;17;16;
61592;PMS5003;70568;51.378;-1.342;2023-06-22T01:52:01;17;17;
61592;PMS5003;70568;51.378;-1.342;2023-06-22T01:54:29;13;13;
61592;PMS5003;70568;51.378;-1.342;2023-06-22T01:56:55;14;13;
61592;PMS5003;70568;51.378;-1.342;2023-06-22T01:59:24;14;14;
61592;PMS5003;70568;51.378;-1.342;2023-06-22T02:01:58;12;12;
61592;PMS5003;70568;51.378;-1.342;2023-06-22T02:04:37;14;14;
61592;PMS5003;70568;51.378;-1.342;2023-06-22T02:07:09;14;14;
61592;PMS5003;70568;51.378;-1.342;2023-06-22T02:09:40;12;12;
61592;PMS5003;70568;51.378;-1.342;2023-06-22T02:12:10;15;15;
61592;PMS5003;70568;51.378;-1.342;2023-06-22T02:14:39;12;12;
61592;PMS5003;70568;51.378;-1.342;2023-06-22T02:17:08;13;13;
61592;PMS5003;70568;51.378;-1.342;2023-06-22T02:19:36;13;12;
61592;PMS5003;70568;51.378;-1.342;2023-06-22T02:22:03;10;10;
61592;PMS5003;70568;51.378;-1.342;2023-06-22T02:24:31;15;14;
61592;PMS5003;70568;51.378;-1.342;2023-06-22T02:26:57;12;11;
61592;PMS5003;70568;51.378;-1.342;2023-06-22T02:29:25;15;14;
61592;PMS5003;70568;51.378;-1.342;2023-06-22T02:31:52;16;14;
61592;PMS5003;70568;51.378;-1.342;2023-06-22T02:34:19;14;14;
61592;PMS5003;70568;51.378;-1.342;2023-06-22T02:36:46;12;11;
61592;PMS5003;70568;51.378;-1.342;2023-06-22T02:39:13;13;13;
61592;PMS5003;70568;51.378;-1.342;2023-06-22T02:41:40;16;16;
61592;PMS5003;70568;51.378;-1.342;2023-06-22T02:44:07;14;14;
61592;PMS5003;70568;51.378;-1.342;2023-06-22T02:46:33;14;14;
61592;PMS5003;70568;51.378;-1.342;2023-06-22T02:49:00;15;13;
61592;PMS5003;70568;51.378;-1.342;2023-06-22T02:51:27;14;14;
61592;PMS5003;70568;51.378;-1.342;2023-06-22T02:53:55;14;14;
61592;PMS5003;70568;51.378;-1.342;2023-06-22T02:56:22;13;13;
61592;PMS5003;70568;51.378;-1.342;2023-06-22T02:58:50;13;13;
61592;PMS5003;70568;51.378;-1.342;2023-06-22T03:01:16;15;14;
61592;PMS5003;70568;51.378;-1.342;2023-06-22T03:03:43;15;14;
61592;PMS5003;70568;51.378;-1.342;2023-06-22T03:06:09;13;13;
61592;PMS5003;70568;51.378;-1.342;2023-06-22T03:08:36;13;13;
61592;PMS5003;70568;51.378;-1.342;2023-06-22T03:11:02;13;13;
61592;PMS5003;70568;51.378;-1.342;2023-06-22T03:13:30;11;11;
61592;PMS5003;70568;51.378;-1.342;2023-06-22T03:15:57;16;15;
61592;PMS5003;70568;51.378;-1.342;2023-06-22T03:18:24;18;18;
61592;PMS5003;70568;51.378;-1.342;2023-06-22T03:20:51;16;16;
61592;PMS5003;70568;51.378;-1.342;2023-06-22T03:23:19;20;18;
61592;PMS5003;70568;51.378;-1.342;2023-06-22T03:25:46;16;15;
61592;PMS5003;70568;51.378;-1.342;2023-06-22T03:28:13;14;14;
61592;PMS5003;70568;51.378;-1.342;2023-06-22T03:30:40;15;15;
61592;PMS5003;70568;51.378;-1.342;2023-06-22T03:33:06;16;15;
61592;PMS5003;70568;51.378;-1.342;2023-06-22T03:35:33;20;19;
61592;PMS5003;70568;51.378;-1.342;2023-06-22T03:38:01;26;25;
61592;PMS5003;70568;51.378;-1.342;2023-06-22T03:40:28;20;20;
61592;PMS5003;70568;51.378;-1.342;2023-06-22T03:42:56;23;22;
61592;PMS5003;70568;51.378;-1.342;2023-06-22T03:45:23;21;21;
61592;PMS5003;70568;51.378;-1.342;2023-06-22T03:47:51;22;21;
61592;PMS5003;70568;51.378;-1.342;2023-06-22T03:50:18;25;24;
61592;PMS5003;70568;51.378;-1.342;2023-06-22T03:52:45;24;24;
61592;PMS5003;70568;51.378;-1.342;2023-06-22T03:55:12;20;20;
61592;PMS5003;70568;51.378;-1.342;2023-06-22T03:57:39;19;18;
61592;PMS5003;70568;51.378;-1.342;2023-06-22T04:00:07;20;19;
61592;PMS5003;70568;51.378;-1.342;2023-06-22T04:02:35;19;18;
61592;PMS5003;70568;51.378;-1.342;2023-06-22T04:05:02;20;19;
61592;PMS5003;70568;51.378;-1.342;2023-06-22T04:07:29;21;20;
61592;PMS5003;70568;51.378;-1.342;2023-06-22T04:09:56;16;16;
61592;PMS5003;70568;51.378;-1.342;2023-06-22T04:12:23;19;19;
61592;PMS5003;70568;51.378;-1.342;2023-06-22T04:14:50;19;19;
61592;PMS5003;70568;51.378;-1.342;2023-06-22T04:17:17;23;21;
61592;PMS5003;70568;51.378;-1.342;2023-06-22T04:19:44;19;18;
61592;PMS5003;70568;51.378;-1.342;2023-06-22T04:22:11;21;20;
61592;PMS5003;70568;51.378;-1.342;2023-06-22T04:24:38;21;20;
61592;PMS5003;70568;51.378;-1.342;2023-06-22T04:27:04;22;20;
61592;PMS5003;70568;51.378;-1.342;2023-06-22T04:29:31;22;22;
61592;PMS5003;70568;51.378;-1.342;2023-06-22T04:31:59;21;20;
61592;PMS5003;70568;51.378;-1.342;2023-06-22T04:34:26;24;23;
61592;PMS5003;70568;51.378;-1.342;2023-06-22T04:36:53;22;22;
61592;PMS5003;70568;51.378;-1.342;2023-06-22T04:39:19;20;19;
61592;PMS5003;70568;51.378;-1.342;2023-06-22T04:41:47;21;20;
61592;PMS5003;70568;51.378;-1.342;2023-06-22T04:44:15;21;20;
61592;PMS5003;70568;51.378;-1.342;2023-06-22T04:46:43;24;21;
61592;PMS5003;70568;51.378;-1.342;2023-06-22T04:49:10;17;17;
61592;PMS5003;70568;51.378;-1.342;2023-06-22T04:51:37;19;18;
61592;PMS5003;70568;51.378;-1.342;2023-06-22T04:54:05;19;18;
61592;PMS5003;70568;51.378;-1.342;2023-06-22T04:56:33;16;16;
61592;PMS5003;70568;51.378;-1.342;2023-06-22T04:59:00;19;18;
61592;PMS5003;70568;51.378;-1.342;2023-06-22T05:01:28;14;14;
61592;PMS5003;70568;51.378;-1.342;2023-06-22T05:03:55;14;14;
61592;PMS5003;70568;51.378;-1.342;2023-06-22T05:06:22;15;14;
61592;PMS5003;70568;51.378;-1.342;2023-06-22T05:08:49;15;15;
61592;PMS5003;70568;51.378;-1.342;2023-06-22T05:11:15;18;18;
61592;PMS5003;70568;51.378;-1.342;2023-06-22T05:13:43;17;17;
61592;PMS5003;70568;51.378;-1.342;2023-06-22T05:16:10;17;17;
61592;PMS5003;70568;51.378;-1.342;2023-06-22T05:18:37;16;16;
61592;PMS5003;70568;51.378;-1.342;2023-06-22T05:21:03;17;15;
61592;PMS5003;70568;51.378;-1.342;2023-06-22T05:23:30;15;14;
61592;PMS5003;70568;51.378;-1.342;2023-06-22T05:25:57;18;17;
61592;PMS5003;70568;51.378;-1.342;2023-06-22T05:28:24;14;14;
61592;PMS5003;70568;51.378;-1.342;2023-06-22T05:30:52;16;16;
61592;PMS5003;70568;51.378;-1.342;2023-06-22T05:33:18;18;17;
61592;PMS5003;70568;51.378;-1.342;2023-06-22T05:35:45;18;17;
61592;PMS5003;70568;51.378;-1.342;2023-06-22T05:38:12;16;15;
61592;PMS5003;70568;51.378;-1.342;2023-06-22T05:40:38;18;18;
61592;PMS5003;70568;51.378;-1.342;2023-06-22T05:43:06;19;18;
61592;PMS5003;70568;51.378;-1.342;2023-06-22T05:45:33;20;18;
61592;PMS5003;70568;51.378;-1.342;2023-06-22T05:48:00;18;18;
61592;PMS5003;70568;51.378;-1.342;2023-06-22T05:50:27;19;19;
61592;PMS5003;70568;51.378;-1.342;2023-06-22T05:52:54;19;18;
61592;PMS5003;70568;51.378;-1.342;2023-06-22T05:55:22;19;17;
61592;PMS5003;70568;51.378;-1.342;2023-06-22T05:57:49;15;15;
61592;PMS5003;70568;51.378;-1.342;2023-06-22T06:00:16;18;18;
61592;PMS5003;70568;51.378;-1.342;2023-06-22T06:02:43;19;19;
61592;PMS5003;70568;51.378;-1.342;2023-06-22T06:05:11;19;18;
61592;PMS5003;70568;51.378;-1.342;2023-06-22T06:07:37;15;15;
61592;PMS5003;70568;51.378;-1.342;2023-06-22T06:10:04;20;19;
61592;PMS5003;70568;51.378;-1.342;2023-06-22T06:12:31;18;18;
61592;PMS5003;70568;51.378;-1.342;2023-06-22T06:14:58;19;19;
61592;PMS5003;70568;51.378;-1.342;2023-06-22T06:17:25;18;18;
61592;PMS5003;70568;51.378;-1.342;2023-06-22T06:19:52;18;17;
61592;PMS5003;70568;51.378;-1.342;2023-06-22T06:22:19;20;20;
61592;PMS5003;70568;51.378;-1.342;2023-06-22T06:24:47;21;21;
61592;PMS5003;70568;51.378;-1.342;2023-06-22T06:27:14;19;19;
61592;PMS5003;70568;51.378;-1.342;2023-06-22T06:29:40;19;19;
61592;PMS5003;70568;51.378;-1.342;2023-06-22T06:32:08;19;19;
61592;PMS5003;70568;51.378;-1.342;2023-06-22T06:34:35;22;21;
61592;PMS5003;70568;51.378;-1.342;2023-06-22T06:37:02;17;16;
61592;PMS5003;70568;51.378;-1.342;2023-06-22T06:39:29;21;19;
61592;PMS5003;70568;51.378;-1.342;2023-06-22T06:41:56;21;20;
61592;PMS5003;70568;51.378;-1.342;2023-06-22T06:44:24;15;15;
61592;PMS5003;70568;51.378;-1.342;2023-06-22T06:46:51;19;18;
61592;PMS5003;70568;51.378;-1.342;2023-06-22T06:49:18;20;20;
61592;PMS5003;70568;51.378;-1.342;2023-06-22T06:51:45;17;17;
61592;PMS5003;70568;51.378;-1.342;2023-06-22T06:54:11;19;19;
61592;PMS5003;70568;51.378;-1.342;2023-06-22T06:56:38;17;17;
61592;PMS5003;70568;51.378;-1.342;2023-06-22T06:59:05;18;17;
61592;PMS5003;70568;51.378;-1.342;2023-06-22T07:01:33;19;19;
61592;PMS5003;70568;51.378;-1.342;2023-06-22T07:04:00;21;20;
61592;PMS5003;70568;51.378;-1.342;2023-06-22T07:06:27;21;21;
61592;PMS5003;70568;51.378;-1.342;2023-06-22T07:08:54;17;17;
61592;PMS5003;70568;51.378;-1.342;2023-06-22T07:11:21;22;21;
61592;PMS5003;70568;51.378;-1.342;2023-06-22T07:13:48;19;19;
61592;PMS5003;70568;51.378;-1.342;2023-06-22T07:16:15;18;17;
61592;PMS5003;70568;51.378;-1.342;2023-06-22T07:18:42;22;20;
61592;PMS5003;70568;51.378;-1.342;2023-06-22T07:21:09;25;25;
61592;PMS5003;70568;51.378;-1.342;2023-06-22T07:23:36;23;23;
61592;PMS5003;70568;51.378;-1.342;2023-06-22T07:26:02;18;18;
61592;PMS5003;70568;51.378;-1.342;2023-06-22T07:28:29;24;22;
61592;PMS5003;70568;51.378;-1.342;2023-06-22T07:30:56;17;16;
61592;PMS5003;70568;51.378;-1.342;2023-06-22T07:33:23;18;17;
61592;PMS5003;70568;51.378;-1.342;2023-06-22T07:35:50;19;18;
61592;PMS5003;70568;51.378;-1.342;2023-06-22T07:38:18;20;20;
61592;PMS5003;70568;51.378;-1.342;2023-06-22T07:40:45;19;18;
61592;PMS5003;70568;51.378;-1.342;2023-06-22T07:43:11;17;17;
61592;PMS5003;70568;51.378;-1.342;2023-06-22T07:45:39;17;16;
61592;PMS5003;70568;51.378;-1.342;2023-06-22T07:48:06;18;17;
61592;PMS5003;70568;51.378;-1.342;2023-06-22T07:50:33;15;15;
61592;PMS5003;70568;51.378;-1.342;2023-06-22T07:52:59;17;17;
61592;PMS5003;70568;51.378;-1.342;2023-06-22T07:55:27;20;20;
61592;PMS5003;70568;51.378;-1.342;2023-06-22T07:57:54;18;18;
61592;PMS5003;70568;51.378;-1.342;2023-06-22T08:00:21;17;16;
61592;PMS5003;70568;51.378;-1.342;2023-06-22T08:02:48;24;22;
61592;PMS5003;70568;51.378;-1.342;2023-06-22T08:05:15;18;18;
61592;PMS5003;70568;51.378;-1.342;2023-06-22T08:07:42;17;17;
61592;PMS5003;70568;51.378;-1.342;2023-06-22T08:10:10;19;18;
61592;PMS5003;70568;51.378;-1.342;2023-06-22T08:12:38;20;19;
61592;PMS5003;70568;51.378;-1.342;2023-06-22T08:15:06;16;16;
61592;PMS5003;70568;51.378;-1.342;2023-06-22T08:17:33;20;20;
61592;PMS5003;70568;51.378;-1.342;2023-06-22T08:20:00;17;16;
61592;PMS5003;70568;51.378;-1.342;2023-06-22T08:22:28;20;18;
61592;PMS5003;70568;51.378;-1.342;2023-06-22T08:24:55;16;15;
61592;PMS5003;70568;51.378;-1.342;2023-06-22T08:27:21;13;13;
61592;PMS5003;70568;51.378;-1.342;2023-06-22T08:29:48;17;17;
61592;PMS5003;70568;51.378;-1.342;2023-06-22T08:32:15;15;14;
61592;PMS5003;70568;51.378;-1.342;2023-06-22T08:34:42;15;14;
61592;PMS5003;70568;51.378;-1.342;2023-06-22T08:37:09;14;14;
61592;PMS5003;70568;51.378;-1.342;2023-06-22T08:39:36;14;14;
61592;PMS5003;70568;51.378;-1.342;2023-06-22T08:42:03;12;12;
61592;PMS5003;70568;51.378;-1.342;2023-06-22T08:44:30;15;14;
61592;PMS5003;70568;51.378;-1.342;2023-06-22T08:46:57;14;14;
61592;PMS5003;70568;51.378;-1.342;2023-06-22T08:49:25;15;14;
61592;PMS5003;70568;51.378;-1.342;2023-06-22T08:51:52;11;11;
61592;PMS5003;70568;51.378;-1.342;2023-06-22T08:54:19;16;14;
61592;PMS5003;70568;51.378;-1.342;2023-06-22T08:56:46;15;14;
61592;PMS5003;70568;51.378;-1.342;2023-06-22T08:59:14;12;12;
61592;PMS5003;70568;51.378;-1.342;2023-06-22T09:01:40;14;14;
61592;PMS5003;70568;51.378;-1.342;2023-06-22T09:04:07;14;12;
61592;PMS5003;70568;51.378;-1.342;2023-06-22T09:06:34;13;12;
61592;PMS5003;70568;51.378;-1.342;2023-06-22T09:09:01;15;13;
61592;PMS5003;70568;51.378;-1.342;2023-06-22T09:11:27;12;12;
61592;PMS5003;70568;51.378;-1.342;2023-06-22T09:13:54;12;11;
61592;PMS5003;70568;51.378;-1.342;2023-06-22T09:16:22;13;13;
61592;PMS5003;70568;51.378;-1.342;2023-06-22T09:18:49;12;12;
61592;PMS5003;70568;51.378;-1.342;2023-06-22T09:21:16;12;12;
61592;PMS5003;70568;51.378;-1.342;2023-06-22T09:23:44;11;11;
61592;PMS5003;70568;51.378;-1.342;2023-06-22T09:26:11;16;15;
61592;PMS5003;70568;51.378;-1.342;2023-06-22T09:28:39;14;14;
61592;PMS5003;70568;51.378;-1.342;2023-06-22T09:31:06;11;11;
61592;PMS5003;70568;51.378;-1.342;2023-06-22T09:33:33;15;12;
61592;PMS5003;70568;51.378;-1.342;2023-06-22T09:36:00;12;12;
61592;PMS5003;70568;51.378;-1.342;2023-06-22T09:38:27;14;11;
61592;PMS5003;70568;51.378;-1.342;2023-06-22T09:40:53;14;12;
61592;PMS5003;70568;51.378;-1.342;2023-06-22T09:43:20;14;12;
61592;PMS5003;70568;51.378;-1.342;2023-06-22T09:45:48;13;11;
61592;PMS5003;70568;51.378;-1.342;2023-06-22T09:48:14;10;10;
61592;PMS5003;70568;51.378;-1.342;2023-06-22T09:50:41;12;12;
61592;PMS5003;70568;51.378;-1.342;2023-06-22T09:53:08;10;9;
61592;PMS5003;70568;51.378;-1.342;2023-06-22T09:55:34;9;9;
61592;PMS5003;70568;51.378;-1.342;2023-06-22T09:58:01;7;7;
61592;PMS5003;70568;51.378;-1.342;2023-06-22T10:00:29;12;11;
61592;PMS5003;70568;51.378;-1.342;2023-06-22T10:02:56;11;10;
61592;PMS5003;70568;51.378;-1.342;2023-06-22T10:05:25;10;10;
61592;PMS5003;70568;51.378;-1.342;2023-06-22T10:07:52;9;9;
61592;PMS5003;70568;51.378;-1.342;2023-06-22T10:10:19;7;6;
61592;PMS5003;70568;51.378;-1.342;2023-06-22T10:12:47;8;8;
61592;PMS5003;70568;51.378;-1.342;2023-06-22T10:15:22;13;12;
61592;PMS5003;70568;51.378;-1.342;2023-06-22T10:17:49;7;7;
61592;PMS5003;70568;51.378;-1.342;2023-06-22T10:20:16;8;7;
61592;PMS5003;70568;51.378;-1.342;2023-06-22T10:22:44;8;8;
61592;PMS5003;70568;51.378;-1.342;2023-06-22T10:25:12;7;7;
61592;PMS5003;70568;51.378;-1.342;2023-06-22T10:27:40;9;9;
61592;PMS5003;70568;51.378;-1.342;2023-06-22T10:30:07;8;7;
61592;PMS5003;70568;51.378;-1.342;2023-06-22T10:32:37;9;9;
61592;PMS5003;70568;51.378;-1.342;2023-06-22T10:35:05;8;7;
61592;PMS5003;70568;51.378;-1.342;2023-06-22T10:37:32;9;9;
61592;PMS5003;70568;51.378;-1.342;2023-06-22T10:39:59;7;7;
61592;PMS5003;70568;51.378;-1.342;2023-06-22T10:42:26;7;7;
61592;PMS5003;70568;51.378;-1.342;2023-06-22T10:44:53;5;4;
61592;PMS5003;70568;51.378;-1.342;2023-06-22T10:47:20;6;6;
61592;PMS5003;70568;51.378;-1.342;2023-06-22T10:49:48;6;6;
61592;PMS5003;70568;51.378;-1.342;2023-06-22T10:52:15;7;6;
61592;PMS5003;70568;51.378;-1.342;2023-06-22T10:54:42;8;8;
61592;PMS5003;70568;51.378;-1.342;2023-06-22T10:57:09;7;7;
61592;PMS5003;70568;51.378;-1.342;2023-06-22T10:59:36;7;7;
61592;PMS5003;70568;51.378;-1.342;2023-06-22T11:02:03;7;7;
61592;PMS5003;70568;51.378;-1.342;2023-06-22T11:04:31;8;8;
61592;PMS5003;70568;51.378;-1.342;2023-06-22T11:06:58;8;7;
61592;PMS5003;70568;51.378;-1.342;2023-06-22T11:09:26;7;7;
61592;PMS5003;70568;51.378;-1.342;2023-06-22T11:11:52;10;10;
61592;PMS5003;70568;51.378;-1.342;2023-06-22T11:14:20;10;10;
61592;PMS5003;70568;51.378;-1.342;2023-06-22T11:16:47;7;7;
61592;PMS5003;70568;51.378;-1.342;2023-06-22T11:19:14;4;4;
61592;PMS5003;70568;51.378;-1.342;2023-06-22T11:21:41;5;5;
61592;PMS5003;70568;51.378;-1.342;2023-06-22T11:24:09;5;5;
61592;PMS5003;70568;51.378;-1.342;2023-06-22T11:26:36;10;9;
61592;PMS5003;70568;51.378;-1.342;2023-06-22T11:29:03;10;10;
61592;PMS5003;70568;51.378;-1.342;2023-06-22T11:31:30;11;10;
61592;PMS5003;70568;51.378;-1.342;2023-06-22T11:33:58;8;8;
61592;PMS5003;70568;51.378;-1.342;2023-06-22T11:36:26;6;6;
61592;PMS5003;70568;51.378;-1.342;2023-06-22T11:38:53;8;6;
61592;PMS5003;70568;51.378;-1.342;2023-06-22T11:41:20;7;7;
61592;PMS5003;70568;51.378;-1.342;2023-06-22T11:43:48;6;6;
61592;PMS5003;70568;51.378;-1.342;2023-06-22T11:46:15;6;6;
61592;PMS5003;70568;51.378;-1.342;2023-06-22T11:48:42;6;6;
61592;PMS5003;70568;51.378;-1.342;2023-06-22T11:51:09;7;7;
61592;PMS5003;70568;51.378;-1.342;2023-06-22T11:53:36;7;7;
61592;PMS5003;70568;51.378;-1.342;2023-06-22T11:56:04;5;5;
61592;PMS5003;70568;51.378;-1.342;2023-06-22T11:58:31;7;7;
61592;PMS5003;70568;51.378;-1.342;2023-06-22T12:00:58;7;6;
61592;PMS5003;70568;51.378;-1.342;2023-06-22T12:03:26;8;7;
61592;PMS5003;70568;51.378;-1.342;2023-06-22T12:05:53;5;5;
61592;PMS5003;70568;51.378;-1.342;2023-06-22T12:08:20;6;6;
61592;PMS5003;70568;51.378;-1.342;2023-06-22T12:10:49;5;5;
61592;PMS5003;70568;51.378;-1.342;2023-06-22T12:13:16;6;6;
61592;PMS5003;70568;51.378;-1.342;2023-06-22T12:15:43;6;6;
61592;PMS5003;70568;51.378;-1.342;2023-06-22T12:18:10;5;5;
61592;PMS5003;70568;51.378;-1.342;2023-06-22T12:20:38;6;6;
61592;PMS5003;70568;51.378;-1.342;2023-06-22T12:23:05;9;8;
61592;PMS5003;70568;51.378;-1.342;2023-06-22T12:25:32;6;6;
61592;PMS5003;70568;51.378;-1.342;2023-06-22T12:27:59;8;7;
61592;PMS5003;70568;51.378;-1.342;2023-06-22T12:30:27;9;8;
61592;PMS5003;70568;51.378;-1.342;2023-06-22T12:32:54;7;7;
61592;PMS5003;70568;51.378;-1.342;2023-06-22T12:35:21;8;8;
61592;PMS5003;70568;51.378;-1.342;2023-06-22T12:37:49;8;7;
61592;PMS5003;70568;51.378;-1.342;2023-06-22T12:40:16;8;7;
61592;PMS5003;70568;51.378;-1.342;2023-06-22T12:42:44;6;6;
61592;PMS5003;70568;51.378;-1.342;2023-06-22T12:45:11;6;6;
61592;PMS5003;70568;51.378;-1.342;2023-06-22T12:47:38;7;7;
61592;PMS5003;70568;51.378;-1.342;2023-06-22T12:50:06;7;7;
61592;PMS5003;70568;51.378;-1.342;2023-06-22T12:52:35;9;9;
61592;PMS5003;70568;51.378;-1.342;2023-06-22T12:55:03;7;6;
61592;PMS5003;70568;51.378;-1.342;2023-06-22T12:57:30;8;8;
61592;PMS5003;70568;51.378;-1.342;2023-06-22T12:59:58;7;6;
61592;PMS5003;70568;51.378;-1.342;2023-06-22T13:02:25;6;6;
61592;PMS5003;70568;51.378;-1.342;2023-06-22T13:04:52;8;7;
61592;PMS5003;70568;51.378;-1.342;2023-06-22T13:07:20;8;8;
61592;PMS5003;70568;51.378;-1.342;2023-06-22T13:09:47;8;8;
61592;PMS5003;70568;51.378;-1.342;2023-06-22T13:12:15;9;8;
61592;PMS5003;70568;51.378;-1.342;2023-06-22T13:14:42;7;7;
61592;PMS5003;70568;51.378;-1.342;2023-06-22T13:17:09;7;7;
61592;PMS5003;70568;51.378;-1.342;2023-06-22T13:19:36;7;6;
61592;PMS5003;70568;51.378;-1.342;2023-06-22T13:22:03;6;6;
61592;PMS5003;70568;51.378;-1.342;2023-06-22T13:24:31;8;7;
61592;PMS5003;70568;51.378;-1.342;2023-06-22T13:26:59;6;6;
61592;PMS5003;70568;51.378;-1.342;2023-06-22T13:29:26;4;4;
61592;PMS5003;70568;51.378;-1.342;2023-06-22T13:31:53;6;6;
61592;PMS5003;70568;51.378;-1.342;2023-06-22T13:34:20;6;6;
61592;PMS5003;70568;51.378;-1.342;2023-06-22T13:36:48;7;7;
61592;PMS5003;70568;51.378;-1.342;2023-06-22T13:39:15;6;6;
61592;PMS5003;70568;51.378;-1.342;2023-06-22T13:41:41;7;7;
61592;PMS5003;70568;51.378;-1.342;2023-06-22T13:44:08;7;7;
61592;PMS5003;70568;51.378;-1.342;2023-06-22T13:46:35;6;6;
61592;PMS5003;70568;51.378;-1.342;2023-06-22T13:49:02;8;7;
61592;PMS5003;70568;51.378;-1.342;2023-06-22T13:51:29;7;7;
61592;PMS5003;70568;51.378;-1.342;2023-06-22T13:53:56;6;6;
61592;PMS5003;70568;51.378;-1.342;2023-06-22T13:56:23;8;7;
61592;PMS5003;70568;51.378;-1.342;2023-06-22T13:58:50;6;6;
61592;PMS5003;70568;51.378;-1.342;2023-06-22T14:01:17;6;6;
61592;PMS5003;70568;51.378;-1.342;2023-06-22T14:03:44;7;6;
61592;PMS5003;70568;51.378;-1.342;2023-06-22T14:06:11;5;5;
61592;PMS5003;70568;51.378;-1.342;2023-06-22T14:08:38;7;7;
61592;PMS5003;70568;51.378;-1.342;2023-06-22T14:11:05;6;6;
61592;PMS5003;70568;51.378;-1.342;2023-06-22T14:13:32;6;6;
61592;PMS5003;70568;51.378;-1.342;2023-06-22T14:16:00;8;8;
61592;PMS5003;70568;51.378;-1.342;2023-06-22T14:18:27;7;7;
61592;PMS5003;70568;51.378;-1.342;2023-06-22T14:20:54;5;5;
61592;PMS5003;70568;51.378;-1.342;2023-06-22T14:23:20;7;7;
61592;PMS5003;70568;51.378;-1.342;2023-06-22T14:25:48;8;8;
61592;PMS5003;70568;51.378;-1.342;2023-06-22T14:28:14;8;7;
61592;PMS5003;70568;51.378;-1.342;2023-06-22T14:30:42;6;6;
61592;PMS5003;70568;51.378;-1.342;2023-06-22T14:33:09;6;5;
61592;PMS5003;70568;51.378;-1.342;2023-06-22T14:35:37;7;7;
61592;PMS5003;70568;51.378;-1.342;2023-06-22T14:38:04;9;8;
61592;PMS5003;70568;51.378;-1.342;2023-06-22T14:40:31;6;6;
61592;PMS5003;70568;51.378;-1.342;2023-06-22T14:42:57;7;7;
61592;PMS5003;70568;51.378;-1.342;2023-06-22T14:45:24;7;7;
61592;PMS5003;70568;51.378;-1.342;2023-06-22T14:47:52;7;7;
61592;PMS5003;70568;51.378;-1.342;2023-06-22T14:50:19;6;6;
61592;PMS5003;70568;51.378;-1.342;2023-06-22T14:52:46;6;6;
61592;PMS5003;70568;51.378;-1.342;2023-06-22T14:55:13;7;7;
61592;PMS5003;70568;51.378;-1.342;2023-06-22T14:57:40;7;6;
61592;PMS5003;70568;51.378;-1.342;2023-06-22T15:00:07;7;7;
61592;PMS5003;70568;51.378;-1.342;2023-06-22T15:02:34;6;5;
61592;PMS5003;70568;51.378;-1.342;2023-06-22T15:05:02;7;7;
61592;PMS5003;70568;51.378;-1.342;2023-06-22T15:07:29;7;6;
61592;PMS5003;70568;51.378;-1.342;2023-06-22T15:09:55;7;7;
61592;PMS5003;70568;51.378;-1.342;2023-06-22T15:12:22;7;6;
61592;PMS5003;70568;51.378;-1.342;2023-06-22T15:14:49;7;6;
61592;PMS5003;70568;51.378;-1.342;2023-06-22T15:17:15;7;7;
61592;PMS5003;70568;51.378;-1.342;2023-06-22T15:19:43;6;6;
61592;PMS5003;70568;51.378;-1.342;2023-06-22T15:22:10;7;6;
61592;PMS5003;70568;51.378;-1.342;2023-06-22T15:24:37;7;7;
61592;PMS5003;70568;51.378;-1.342;2023-06-22T15:27:04;6;6;
61592;PMS5003;70568;51.378;-1.342;2023-06-22T15:29:32;5;5;
61592;PMS5003;70568;51.378;-1.342;2023-06-22T15:31:58;4;4;
61592;PMS5003;70568;51.378;-1.342;2023-06-22T15:34:25;7;7;
61592;PMS5003;70568;51.378;-1.342;2023-06-22T15:36:52;7;7;
61592;PMS5003;70568;51.378;-1.342;2023-06-22T15:39:20;7;7;
61592;PMS5003;70568;51.378;-1.342;2023-06-22T15:41:47;8;8;
61592;PMS5003;70568;51.378;-1.342;2023-06-22T15:44:13;5;5;
61592;PMS5003;70568;51.378;-1.342;2023-06-22T15:46:40;5;5;
61592;PMS5003;70568;51.378;-1.342;2023-06-22T15:49:07;8;8;
61592;PMS5003;70568;51.378;-1.342;2023-06-22T15:51:35;8;8;
61592;PMS5003;70568;51.378;-1.342;2023-06-22T15:54:01;8;7;
61592;PMS5003;70568;51.378;-1.342;2023-06-22T15:56:29;7;7;
61592;PMS5003;70568;51.378;-1.342;2023-06-22T15:58:57;7;7;
61592;PMS5003;70568;51.378;-1.342;2023-06-22T16:01:25;7;7;
61592;PMS5003;70568;51.378;-1.342;2023-06-22T16:03:52;7;7;
61592;PMS5003;70568;51.378;-1.342;2023-06-22T16:06:19;7;7;
61592;PMS5003;70568;51.378;-1.342;2023-06-22T16:08:47;7;7;
61592;PMS5003;70568;51.378;-1.342;2023-06-22T16:11:13;9;9;
61592;PMS5003;70568;51.378;-1.342;2023-06-22T16:13:41;10;8;